sensor_id;sensor_type;location;lat;lon;timestamp;temperature;humidity
67194;DHT22;54121;53.508;49.422;2023-02-28T00:01:04;2.30;54.80
67194;DHT22;54121;53.508;49.422;2023-02-28T00:03:31;2.30;56.00
67194;DHT22;54121;53.508;49.422;2023-02-28T00:06:03;2.30;55.00
67194;DHT22;54121;53.508;49.422;2023-02-28T00:08:30;2.30;55.20
67194;DHT22;54121;53.508;49.422;2023-02-28T00:11:01;2.10;55.70
67194;DHT22;54121;53.508;49.422;2023-02-28T00:13:29;2.10;55.60
67194;DHT22;54121;53.508;49.422;2023-02-28T00:16:07;2.10;55.90
67194;DHT22;54121;53.508;49.422;2023-02-28T00:18:34;2.00;55.90
67194;DHT22;54121;53.508;49.422;2023-02-28T00:21:01;1.90;56.40
67194;DHT22;54121;53.508;49.422;2023-02-28T00:23:28;2.00;56.60
67194;DHT22;54121;53.508;49.422;2023-02-28T00:25:54;1.90;56.90
67194;DHT22;54121;53.508;49.422;2023-02-28T00:28:22;1.90;57.40
67194;DHT22;54121;53.508;49.422;2023-02-28T00:30:49;2.00;56.50
67194;DHT22;54121;53.508;49.422;2023-02-28T00:33:16;2.10;56.70
67194;DHT22;54121;53.508;49.422;2023-02-28T00:35:43;2.20;55.90
67194;DHT22;54121;53.508;49.422;2023-02-28T00:38:13;2.20;55.90
67194;DHT22;54121;53.508;49.422;2023-02-28T00:40:41;2.20;55.80
67194;DHT22;54121;53.508;49.422;2023-02-28T00:43:07;2.20;56.00
67194;DHT22;54121;53.508;49.422;2023-02-28T00:45:34;2.10;55.20
67194;DHT22;54121;53.508;49.422;2023-02-28T00:48:01;2.10;56.00
67194;DHT22;54121;53.508;49.422;2023-02-28T00:50:28;2.10;55.90
67194;DHT22;54121;53.508;49.422;2023-02-28T00:52:54;2.10;55.60
67194;DHT22;54121;53.508;49.422;2023-02-28T00:55:21;2.10;55.70
67194;DHT22;54121;53.508;49.422;2023-02-28T00:57:48;2.00;55.80
67194;DHT22;54121;53.508;49.422;2023-02-28T01:00:15;2.10;56.10
67194;DHT22;54121;53.508;49.422;2023-02-28T01:02:42;2.10;56.10
67194;DHT22;54121;53.508;49.422;2023-02-28T01:05:09;2.20;55.90
67194;DHT22;54121;53.508;49.422;2023-02-28T01:07:36;2.20;55.90
67194;DHT22;54121;53.508;49.422;2023-02-28T01:10:03;2.10;55.80
67194;DHT22;54121;53.508;49.422;2023-02-28T01:12:30;2.10;55.90
67194;DHT22;54121;53.508;49.422;2023-02-28T01:14:57;2.20;55.90
67194;DHT22;54121;53.508;49.422;2023-02-28T01:17:24;2.30;55.40
67194;DHT22;54121;53.508;49.422;2023-02-28T01:19:53;2.30;54.90
67194;DHT22;54121;53.508;49.422;2023-02-28T01:22:20;2.20;55.30
67194;DHT22;54121;53.508;49.422;2023-02-28T01:24:47;2.20;55.60
67194;DHT22;54121;53.508;49.422;2023-02-28T01:27:14;2.30;55.10
67194;DHT22;54121;53.508;49.422;2023-02-28T01:29:41;2.20;54.80
67194;DHT22;54121;53.508;49.422;2023-02-28T01:32:07;2.30;55.10
67194;DHT22;54121;53.508;49.422;2023-02-28T01:34:34;2.20;54.80
67194;DHT22;54121;53.508;49.422;2023-02-28T01:37:01;2.20;55.00
67194;DHT22;54121;53.508;49.422;2023-02-28T01:39:28;2.30;55.00
67194;DHT22;54121;53.508;49.422;2023-02-28T01:41:54;2.30;54.50
67194;DHT22;54121;53.508;49.422;2023-02-28T01:47:38;2.20;54.40
67194;DHT22;54121;53.508;49.422;2023-02-28T01:50:12;2.20;54.80
67194;DHT22;54121;53.508;49.422;2023-02-28T01:52:40;2.10;54.80
67194;DHT22;54121;53.508;49.422;2023-02-28T01:55:08;2.10;54.00
67194;DHT22;54121;53.508;49.422;2023-02-28T01:57:50;2.00;54.00
67194;DHT22;54121;53.508;49.422;2023-02-28T02:00:21;2.00;54.20
67194;DHT22;54121;53.508;49.422;2023-02-28T02:02:52;2.20;54.30
67194;DHT22;54121;53.508;49.422;2023-02-28T02:05:23;2.10;54.30
67194;DHT22;54121;53.508;49.422;2023-02-28T02:07:57;2.20;54.20
67194;DHT22;54121;53.508;49.422;2023-02-28T02:10:32;2.10;54.10
67194;DHT22;54121;53.508;49.422;2023-02-28T02:27:16;1.80;54.20
67194;DHT22;54121;53.508;49.422;2023-02-28T02:30:18;1.90;54.10
67194;DHT22;54121;53.508;49.422;2023-02-28T02:33:08;1.90;54.00
67194;DHT22;54121;53.508;49.422;2023-02-28T02:38:51;1.70;54.80
67194;DHT22;54121;53.508;49.422;2023-02-28T02:47:10;1.60;55.50
67194;DHT22;54121;53.508;49.422;2023-02-28T02:49:40;1.70;54.30
67194;DHT22;54121;53.508;49.422;2023-02-28T02:52:12;1.70;54.20
67194;DHT22;54121;53.508;49.422;2023-02-28T02:54:42;4.10;55.10
67194;DHT22;54121;53.508;49.422;2023-02-28T02:57:24;1.70;54.40
67194;DHT22;54121;53.508;49.422;2023-02-28T02:59:54;1.60;54.20
67194;DHT22;54121;53.508;49.422;2023-02-28T03:02:23;1.60;54.80
67194;DHT22;54121;53.508;49.422;2023-02-28T03:04:57;1.60;54.80
67194;DHT22;54121;53.508;49.422;2023-02-28T03:07:28;1.60;55.50
67194;DHT22;54121;53.508;49.422;2023-02-28T03:09:57;1.70;55.90
67194;DHT22;54121;53.508;49.422;2023-02-28T03:12:40;1.70;54.30
67194;DHT22;54121;53.508;49.422;2023-02-28T03:15:23;1.60;54.70
67194;DHT22;54121;53.508;49.422;2023-02-28T03:18:22;1.50;55.60
67194;DHT22;54121;53.508;49.422;2023-02-28T03:21:01;1.50;55.80
67194;DHT22;54121;53.508;49.422;2023-02-28T03:23:42;1.60;55.80
67194;DHT22;54121;53.508;49.422;2023-02-28T03:26:21;1.50;56.10
67194;DHT22;54121;53.508;49.422;2023-02-28T03:28:51;1.50;55.50
67194;DHT22;54121;53.508;49.422;2023-02-28T03:31:30;1.60;55.40
67194;DHT22;54121;53.508;49.422;2023-02-28T03:34:19;1.30;55.30
67194;DHT22;54121;53.508;49.422;2023-02-28T03:36:52;1.30;55.30
67194;DHT22;54121;53.508;49.422;2023-02-28T03:39:34;1.20;55.80
67194;DHT22;54121;53.508;49.422;2023-02-28T03:42:11;1.20;56.10
67194;DHT22;54121;53.508;49.422;2023-02-28T03:44:47;1.20;55.90
67194;DHT22;54121;53.508;49.422;2023-02-28T03:50:13;1.30;56.20
67194;DHT22;54121;53.508;49.422;2023-02-28T03:52:47;1.40;56.50
67194;DHT22;54121;53.508;49.422;2023-02-28T03:55:16;1.40;55.00
67194;DHT22;54121;53.508;49.422;2023-02-28T04:00:38;1.30;57.10
67194;DHT22;54121;53.508;49.422;2023-02-28T04:03:05;1.40;56.10
67194;DHT22;54121;53.508;49.422;2023-02-28T04:05:33;1.60;55.80
67194;DHT22;54121;53.508;49.422;2023-02-28T04:08:10;1.80;55.70
67194;DHT22;54121;53.508;49.422;2023-02-28T04:10:37;2.10;54.50
67194;DHT22;54121;53.508;49.422;2023-02-28T04:13:04;2.40;53.80
67194;DHT22;54121;53.508;49.422;2023-02-28T04:15:31;2.60;53.20
67194;DHT22;54121;53.508;49.422;2023-02-28T04:17:58;3.00;52.00
67194;DHT22;54121;53.508;49.422;2023-02-28T04:20:24;3.30;50.80
67194;DHT22;54121;53.508;49.422;2023-02-28T04:22:51;3.40;49.70
67194;DHT22;54121;53.508;49.422;2023-02-28T04:25:18;3.60;50.00
67194;DHT22;54121;53.508;49.422;2023-02-28T04:27:45;3.70;49.60
67194;DHT22;54121;53.508;49.422;2023-02-28T04:30:12;3.90;48.20
67194;DHT22;54121;53.508;49.422;2023-02-28T04:32:39;4.00;47.20
67194;DHT22;54121;53.508;49.422;2023-02-28T04:35:07;4.20;47.80
67194;DHT22;54121;53.508;49.422;2023-02-28T04:37:33;4.30;46.50
67194;DHT22;54121;53.508;49.422;2023-02-28T04:40:04;4.40;46.00
67194;DHT22;54121;53.508;49.422;2023-02-28T04:42:31;4.40;46.00
67194;DHT22;54121;53.508;49.422;2023-02-28T04:45:03;4.70;45.50
67194;DHT22;54121;53.508;49.422;2023-02-28T04:47:30;4.80;45.20
67194;DHT22;54121;53.508;49.422;2023-02-28T04:49:58;5.10;44.80
67194;DHT22;54121;53.508;49.422;2023-02-28T04:52:25;5.20;44.10
67194;DHT22;54121;53.508;49.422;2023-02-28T04:54:53;5.30;44.00
67194;DHT22;54121;53.508;49.422;2023-02-28T04:57:20;5.40;43.40
67194;DHT22;54121;53.508;49.422;2023-02-28T04:59:47;5.30;42.90
67194;DHT22;54121;53.508;49.422;2023-02-28T05:02:14;5.40;43.40
67194;DHT22;54121;53.508;49.422;2023-02-28T05:04:41;5.50;42.90
67194;DHT22;54121;53.508;49.422;2023-02-28T05:07:08;5.50;42.80
67194;DHT22;54121;53.508;49.422;2023-02-28T05:09:36;5.60;42.70
67194;DHT22;54121;53.508;49.422;2023-02-28T05:12:02;5.80;42.60
67194;DHT22;54121;53.508;49.422;2023-02-28T05:14:29;5.80;42.20
67194;DHT22;54121;53.508;49.422;2023-02-28T05:16:56;5.70;42.50
67194;DHT22;54121;53.508;49.422;2023-02-28T05:19:23;5.50;42.30
67194;DHT22;54121;53.508;49.422;2023-02-28T05:21:52;5.40;43.30
67194;DHT22;54121;53.508;49.422;2023-02-28T05:24:19;5.20;43.90
67194;DHT22;54121;53.508;49.422;2023-02-28T05:26:50;5.10;44.90
67194;DHT22;54121;53.508;49.422;2023-02-28T05:29:18;5.40;43.50
67194;DHT22;54121;53.508;49.422;2023-02-28T05:31:45;5.90;41.50
67194;DHT22;54121;53.508;49.422;2023-02-28T05:34:12;5.90;41.00
67194;DHT22;54121;53.508;49.422;2023-02-28T05:36:42;6.00;40.90
67194;DHT22;54121;53.508;49.422;2023-02-28T05:39:09;6.00;40.00
67194;DHT22;54121;53.508;49.422;2023-02-28T05:41:43;6.00;39.80
67194;DHT22;54121;53.508;49.422;2023-02-28T05:44:10;5.90;40.40
67194;DHT22;54121;53.508;49.422;2023-02-28T05:46:40;6.10;39.10
67194;DHT22;54121;53.508;49.422;2023-02-28T05:49:06;6.20;38.60
67194;DHT22;54121;53.508;49.422;2023-02-28T05:51:33;6.20;38.30
67194;DHT22;54121;53.508;49.422;2023-02-28T05:54:02;6.00;39.10
67194;DHT22;54121;53.508;49.422;2023-02-28T05:56:29;5.90;39.00
67194;DHT22;54121;53.508;49.422;2023-02-28T05:58:56;5.80;39.80
67194;DHT22;54121;53.508;49.422;2023-02-28T06:01:36;6.00;39.60
67194;DHT22;54121;53.508;49.422;2023-02-28T06:04:05;6.10;39.00
67194;DHT22;54121;53.508;49.422;2023-02-28T06:06:32;6.40;38.50
67194;DHT22;54121;53.508;49.422;2023-02-28T06:09:00;6.70;37.60
67194;DHT22;54121;53.508;49.422;2023-02-28T06:11:27;7.00;36.40
67194;DHT22;54121;53.508;49.422;2023-02-28T06:13:58;7.30;35.80
67194;DHT22;54121;53.508;49.422;2023-02-28T06:16:27;7.50;35.30
67194;DHT22;54121;53.508;49.422;2023-02-28T06:18:56;7.80;34.90
67194;DHT22;54121;53.508;49.422;2023-02-28T06:21:23;8.30;33.50
67194;DHT22;54121;53.508;49.422;2023-02-28T06:23:50;8.70;32.40
67194;DHT22;54121;53.508;49.422;2023-02-28T06:26:17;8.80;32.30
67194;DHT22;54121;53.508;49.422;2023-02-28T06:28:44;9.10;32.20
67194;DHT22;54121;53.508;49.422;2023-02-28T06:31:13;9.40;31.20
67194;DHT22;54121;53.508;49.422;2023-02-28T06:33:41;9.30;31.80
67194;DHT22;54121;53.508;49.422;2023-02-28T06:36:11;9.50;31.70
67194;DHT22;54121;53.508;49.422;2023-02-28T06:38:39;9.90;29.90
67194;DHT22;54121;53.508;49.422;2023-02-28T06:41:07;10.20;29.80
67194;DHT22;54121;53.508;49.422;2023-02-28T06:43:39;10.30;29.70
67194;DHT22;54121;53.508;49.422;2023-02-28T06:46:08;10.40;29.70
67194;DHT22;54121;53.508;49.422;2023-02-28T06:48:35;10.90;29.30
67194;DHT22;54121;53.508;49.422;2023-02-28T06:51:18;11.40;28.10
67194;DHT22;54121;53.508;49.422;2023-02-28T06:53:46;11.90;27.80
67194;DHT22;54121;53.508;49.422;2023-02-28T06:56:15;12.40;26.70
67194;DHT22;54121;53.508;49.422;2023-02-28T06:58:49;12.90;26.80
67194;DHT22;54121;53.508;49.422;2023-02-28T07:01:17;12.80;27.50
67194;DHT22;54121;53.508;49.422;2023-02-28T07:03:45;12.30;26.90
67194;DHT22;54121;53.508;49.422;2023-02-28T07:06:12;11.50;27.80
67194;DHT22;54121;53.508;49.422;2023-02-28T07:08:39;11.80;28.50
67194;DHT22;54121;53.508;49.422;2023-02-28T07:11:07;12.60;27.60
67194;DHT22;54121;53.508;49.422;2023-02-28T07:13:34;12.60;26.90
67194;DHT22;54121;53.508;49.422;2023-02-28T07:16:04;12.80;26.50
67194;DHT22;54121;53.508;49.422;2023-02-28T07:18:32;12.50;26.90
67194;DHT22;54121;53.508;49.422;2023-02-28T07:21:08;12.50;26.40
67194;DHT22;54121;53.508;49.422;2023-02-28T07:23:37;12.40;26.50
67194;DHT22;54121;53.508;49.422;2023-02-28T07:26:11;12.70;26.10
67194;DHT22;54121;53.508;49.422;2023-02-28T07:28:42;12.70;26.20
67194;DHT22;54121;53.508;49.422;2023-02-28T07:31:10;13.20;25.60
67194;DHT22;54121;53.508;49.422;2023-02-28T07:33:37;13.00;25.90
67194;DHT22;54121;53.508;49.422;2023-02-28T07:36:07;12.90;25.50
67194;DHT22;54121;53.508;49.422;2023-02-28T07:38:37;13.20;25.20
67194;DHT22;54121;53.508;49.422;2023-02-28T07:41:04;12.90;25.50
67194;DHT22;54121;53.508;49.422;2023-02-28T07:43:32;12.80;26.10
67194;DHT22;54121;53.508;49.422;2023-02-28T07:46:08;12.80;26.40
67194;DHT22;54121;53.508;49.422;2023-02-28T07:48:35;13.10;26.10
67194;DHT22;54121;53.508;49.422;2023-02-28T07:51:02;13.30;25.70
67194;DHT22;54121;53.508;49.422;2023-02-28T07:53:30;13.50;25.00
67194;DHT22;54121;53.508;49.422;2023-02-28T07:55:58;13.20;25.60
67194;DHT22;54121;53.508;49.422;2023-02-28T07:58:26;12.70;26.10
67194;DHT22;54121;53.508;49.422;2023-02-28T08:00:53;13.00;26.20
67194;DHT22;54121;53.508;49.422;2023-02-28T08:03:22;12.50;26.00
67194;DHT22;54121;53.508;49.422;2023-02-28T08:05:50;11.80;26.90
67194;DHT22;54121;53.508;49.422;2023-02-28T08:08:18;11.70;27.40
67194;DHT22;54121;53.508;49.422;2023-02-28T08:10:45;12.20;27.10
67194;DHT22;54121;53.508;49.422;2023-02-28T08:13:12;12.10;27.30
67194;DHT22;54121;53.508;49.422;2023-02-28T08:15:41;12.30;27.10
67194;DHT22;54121;53.508;49.422;2023-02-28T08:18:09;12.30;26.70
67194;DHT22;54121;53.508;49.422;2023-02-28T08:20:36;12.00;26.90
67194;DHT22;54121;53.508;49.422;2023-02-28T08:23:03;11.90;27.30
67194;DHT22;54121;53.508;49.422;2023-02-28T08:25:29;12.40;27.10
67194;DHT22;54121;53.508;49.422;2023-02-28T08:27:56;12.00;26.90
67194;DHT22;54121;53.508;49.422;2023-02-28T08:30:23;11.80;27.50
67194;DHT22;54121;53.508;49.422;2023-02-28T08:32:50;12.00;27.60
67194;DHT22;54121;53.508;49.422;2023-02-28T08:35:17;12.30;26.70
67194;DHT22;54121;53.508;49.422;2023-02-28T08:37:44;12.60;26.60
67194;DHT22;54121;53.508;49.422;2023-02-28T08:40:11;12.30;26.70
67194;DHT22;54121;53.508;49.422;2023-02-28T08:42:48;12.40;26.80
67194;DHT22;54121;53.508;49.422;2023-02-28T08:45:15;12.30;26.80
67194;DHT22;54121;53.508;49.422;2023-02-28T08:47:42;11.70;27.00
67194;DHT22;54121;53.508;49.422;2023-02-28T08:50:09;12.00;27.50
67194;DHT22;54121;53.508;49.422;2023-02-28T08:52:36;12.10;26.90
67194;DHT22;54121;53.508;49.422;2023-02-28T08:55:05;12.50;26.80
67194;DHT22;54121;53.508;49.422;2023-02-28T08:57:32;12.80;26.00
67194;DHT22;54121;53.508;49.422;2023-02-28T08:59:59;12.60;26.50
67194;DHT22;54121;53.508;49.422;2023-02-28T09:02:26;12.40;26.40
67194;DHT22;54121;53.508;49.422;2023-02-28T09:04:53;11.80;26.20
67194;DHT22;54121;53.508;49.422;2023-02-28T09:07:20;12.10;27.00
67194;DHT22;54121;53.508;49.422;2023-02-28T09:09:46;12.10;26.60
67194;DHT22;54121;53.508;49.422;2023-02-28T09:12:24;12.30;27.30
67194;DHT22;54121;53.508;49.422;2023-02-28T09:14:51;12.90;26.40
67194;DHT22;54121;53.508;49.422;2023-02-28T09:17:19;13.30;25.90
67194;DHT22;54121;53.508;49.422;2023-02-28T09:19:49;13.90;25.30
67194;DHT22;54121;53.508;49.422;2023-02-28T09:22:16;13.90;25.20
67194;DHT22;54121;53.508;49.422;2023-02-28T09:24:42;16.50;25.60
67194;DHT22;54121;53.508;49.422;2023-02-28T09:27:10;14.30;24.50
67194;DHT22;54121;53.508;49.422;2023-02-28T09:29:40;14.60;24.00
67194;DHT22;54121;53.508;49.422;2023-02-28T09:32:07;15.10;23.90
67194;DHT22;54121;53.508;49.422;2023-02-28T09:34:34;15.30;22.70
67194;DHT22;54121;53.508;49.422;2023-02-28T09:37:03;15.20;22.70
67194;DHT22;54121;53.508;49.422;2023-02-28T09:39:29;15.40;22.80
67194;DHT22;54121;53.508;49.422;2023-02-28T09:41:57;15.60;22.20
67194;DHT22;54121;53.508;49.422;2023-02-28T09:44:35;15.90;21.80
67194;DHT22;54121;53.508;49.422;2023-02-28T09:47:25;16.10;21.40
67194;DHT22;54121;53.508;49.422;2023-02-28T09:49:53;16.30;21.70
67194;DHT22;54121;53.508;49.422;2023-02-28T09:52:32;16.70;21.20
67194;DHT22;54121;53.508;49.422;2023-02-28T09:55:22;17.00;20.60
67194;DHT22;54121;53.508;49.422;2023-02-28T09:57:52;17.50;20.60
67194;DHT22;54121;53.508;49.422;2023-02-28T10:00:22;17.90;19.90
67194;DHT22;54121;53.508;49.422;2023-02-28T10:05:33;17.60;19.90
67194;DHT22;54121;53.508;49.422;2023-02-28T10:08:12;17.70;19.60
67194;DHT22;54121;53.508;49.422;2023-02-28T10:10:41;17.80;19.70
67194;DHT22;54121;53.508;49.422;2023-02-28T10:15:45;16.80;20.10
67194;DHT22;54121;53.508;49.422;2023-02-28T10:18:19;17.90;21.70
67194;DHT22;54121;53.508;49.422;2023-02-28T10:20:48;16.70;20.80
67194;DHT22;54121;53.508;49.422;2023-02-28T10:23:22;16.10;21.30
67194;DHT22;54121;53.508;49.422;2023-02-28T10:26:18;16.70;21.40
67194;DHT22;54121;53.508;49.422;2023-02-28T10:28:45;16.20;20.70
67194;DHT22;54121;53.508;49.422;2023-02-28T10:31:18;15.90;21.90
67194;DHT22;54121;53.508;49.422;2023-02-28T10:33:47;16.10;21.70
67194;DHT22;54121;53.508;49.422;2023-02-28T10:36:16;15.70;21.40
67194;DHT22;54121;53.508;49.422;2023-02-28T10:38:45;15.10;22.60
67194;DHT22;54121;53.508;49.422;2023-02-28T10:41:26;14.40;22.90
67194;DHT22;54121;53.508;49.422;2023-02-28T10:44:25;13.80;24.20
67194;DHT22;54121;53.508;49.422;2023-02-28T10:46:52;13.50;24.50
67194;DHT22;54121;53.508;49.422;2023-02-28T10:49:26;13.20;25.10
67194;DHT22;54121;53.508;49.422;2023-02-28T10:51:59;14.50;24.70
67194;DHT22;54121;53.508;49.422;2023-02-28T10:54:32;15.60;23.10
67194;DHT22;54121;53.508;49.422;2023-02-28T10:57:18;16.20;22.30
67194;DHT22;54121;53.508;49.422;2023-02-28T10:59:45;17.00;20.80
67194;DHT22;54121;53.508;49.422;2023-02-28T11:02:48;17.70;20.60
67194;DHT22;54121;53.508;49.422;2023-02-28T11:05:29;17.40;19.90
67194;DHT22;54121;53.508;49.422;2023-02-28T11:08:12;17.90;19.90
67194;DHT22;54121;53.508;49.422;2023-02-28T11:10:45;16.10;20.90
67194;DHT22;54121;53.508;49.422;2023-02-28T11:13:20;15.80;21.80
67194;DHT22;54121;53.508;49.422;2023-02-28T11:15:57;16.60;21.40
67194;DHT22;54121;53.508;49.422;2023-02-28T11:18:29;15.80;22.10
67194;DHT22;54121;53.508;49.422;2023-02-28T11:20:58;16.10;21.50
67194;DHT22;54121;53.508;49.422;2023-02-28T11:23:27;15.20;22.60
67194;DHT22;54121;53.508;49.422;2023-02-28T11:25:59;14.70;22.60
67194;DHT22;54121;53.508;49.422;2023-02-28T11:28:35;14.40;24.00
67194;DHT22;54121;53.508;49.422;2023-02-28T11:33:51;15.20;23.10
67194;DHT22;54121;53.508;49.422;2023-02-28T11:36:22;16.40;22.50
67194;DHT22;54121;53.508;49.422;2023-02-28T11:39:00;16.50;21.60
67194;DHT22;54121;53.508;49.422;2023-02-28T11:51:26;16.50;22.00
67194;DHT22;54121;53.508;49.422;2023-02-28T11:56:37;15.80;22.40
67194;DHT22;54121;53.508;49.422;2023-02-28T11:59:10;16.60;21.90
67194;DHT22;54121;53.508;49.422;2023-02-28T12:07:50;16.40;21.80
67194;DHT22;54121;53.508;49.422;2023-02-28T12:10:35;15.60;22.30
67194;DHT22;54121;53.508;49.422;2023-02-28T12:16:16;16.20;21.60
67194;DHT22;54121;53.508;49.422;2023-02-28T12:21:48;16.30;21.60
67194;DHT22;54121;53.508;49.422;2023-02-28T12:27:10;17.70;19.90
67194;DHT22;54121;53.508;49.422;2023-02-28T12:32:12;17.40;20.70
67194;DHT22;54121;53.508;49.422;2023-02-28T12:34:47;18.30;19.40
67194;DHT22;54121;53.508;49.422;2023-02-28T12:37:20;17.90;19.70
67194;DHT22;54121;53.508;49.422;2023-02-28T12:39:51;19.20;18.70
67194;DHT22;54121;53.508;49.422;2023-02-28T12:42:27;18.70;18.70
67194;DHT22;54121;53.508;49.422;2023-02-28T12:47:31;19.30;18.60
67194;DHT22;54121;53.508;49.422;2023-02-28T12:50:08;19.10;18.10
67194;DHT22;54121;53.508;49.422;2023-02-28T12:58:26;18.60;18.80
67194;DHT22;54121;53.508;49.422;2023-02-28T13:09:10;17.60;19.40
67194;DHT22;54121;53.508;49.422;2023-02-28T13:11:46;17.60;19.70
67194;DHT22;54121;53.508;49.422;2023-02-28T13:14:36;16.80;20.20
67194;DHT22;54121;53.508;49.422;2023-02-28T13:19:45;16.10;21.50
67194;DHT22;54121;53.508;49.422;2023-02-28T13:24:54;15.50;22.60
67194;DHT22;54121;53.508;49.422;2023-02-28T13:27:31;15.20;22.70
67194;DHT22;54121;53.508;49.422;2023-02-28T13:29:59;14.70;23.30
67194;DHT22;54121;53.508;49.422;2023-02-28T13:32:28;14.60;23.50
67194;DHT22;54121;53.508;49.422;2023-02-28T13:40:44;14.60;23.90
67194;DHT22;54121;53.508;49.422;2023-02-28T13:42:49;13.80;24.90
67194;DHT22;54121;53.508;49.422;2023-02-28T13:45:30;14.00;24.90
67194;DHT22;54121;53.508;49.422;2023-02-28T13:48:02;13.80;24.80
67194;DHT22;54121;53.508;49.422;2023-02-28T13:50:32;13.20;25.50
67194;DHT22;54121;53.508;49.422;2023-02-28T13:58:54;11.90;27.50
67194;DHT22;54121;53.508;49.422;2023-02-28T14:07:15;10.30;29.60
67194;DHT22;54121;53.508;49.422;2023-02-28T14:09:50;9.60;31.00
67194;DHT22;54121;53.508;49.422;2023-02-28T14:12:54;9.70;31.40
67194;DHT22;54121;53.508;49.422;2023-02-28T14:16:00;9.40;32.00
67194;DHT22;54121;53.508;49.422;2023-02-28T14:18:34;9.80;34.60
67194;DHT22;54121;53.508;49.422;2023-02-28T14:29:59;7.20;37.90
67194;DHT22;54121;53.508;49.422;2023-02-28T14:37:39;6.10;40.60
67194;DHT22;54121;53.508;49.422;2023-02-28T14:43:00;5.00;43.40
67194;DHT22;54121;53.508;49.422;2023-02-28T14:45:30;5.00;43.40
67194;DHT22;54121;53.508;49.422;2023-02-28T14:47:57;5.00;43.60
67194;DHT22;54121;53.508;49.422;2023-02-28T14:50:36;4.70;44.00
67194;DHT22;54121;53.508;49.422;2023-02-28T14:53:03;4.20;44.70
67194;DHT22;54121;53.508;49.422;2023-02-28T14:55:35;3.70;47.00
67194;DHT22;54121;53.508;49.422;2023-02-28T14:58:05;3.30;47.70
67194;DHT22;54121;53.508;49.422;2023-02-28T15:00:33;2.80;49.60
67194;DHT22;54121;53.508;49.422;2023-02-28T15:03:11;1.30;51.20
67194;DHT22;54121;53.508;49.422;2023-02-28T15:05:55;2.00;52.90
67194;DHT22;54121;53.508;49.422;2023-02-28T15:08:22;1.70;53.80
67194;DHT22;54121;53.508;49.422;2023-02-28T15:10:53;1.40;54.70
67194;DHT22;54121;53.508;49.422;2023-02-28T15:13:21;1.00;55.80
67194;DHT22;54121;53.508;49.422;2023-02-28T15:15:59;1.10;56.30
67194;DHT22;54121;53.508;49.422;2023-02-28T15:21:12;1.00;57.00
67194;DHT22;54121;53.508;49.422;2023-02-28T15:23:42;0.80;57.50
67194;DHT22;54121;53.508;49.422;2023-02-28T15:26:15;0.80;57.30
67194;DHT22;54121;53.508;49.422;2023-02-28T15:28:44;0.70;57.70
67194;DHT22;54121;53.508;49.422;2023-02-28T15:31:32;0.70;57.90
67194;DHT22;54121;53.508;49.422;2023-02-28T15:34:04;0.60;58.70
67194;DHT22;54121;53.508;49.422;2023-02-28T15:36:34;0.70;58.10
67194;DHT22;54121;53.508;49.422;2023-02-28T15:39:19;0.50;58.50
67194;DHT22;54121;53.508;49.422;2023-02-28T15:41:46;0.40;59.20
67194;DHT22;54121;53.508;49.422;2023-02-28T15:46:53;0.10;59.40
67194;DHT22;54121;53.508;49.422;2023-02-28T15:49:21;0.00;60.10
67194;DHT22;54121;53.508;49.422;2023-02-28T15:51:51;-0.10;60.50
67194;DHT22;54121;53.508;49.422;2023-02-28T15:54:24;-0.10;60.70
67194;DHT22;54121;53.508;49.422;2023-02-28T15:56:56;-0.20;60.60
67194;DHT22;54121;53.508;49.422;2023-02-28T15:59:28;-0.40;61.50
67194;DHT22;54121;53.508;49.422;2023-02-28T16:02:23;-0.40;61.50
67194;DHT22;54121;53.508;49.422;2023-02-28T16:07:44;-0.50;62.60
67194;DHT22;54121;53.508;49.422;2023-02-28T16:10:12;-0.60;62.40
67194;DHT22;54121;53.508;49.422;2023-02-28T16:12:42;0.30;63.90
67194;DHT22;54121;53.508;49.422;2023-02-28T16:17:48;-0.80;64.00
67194;DHT22;54121;53.508;49.422;2023-02-28T16:20:24;-0.80;63.80
67194;DHT22;54121;53.508;49.422;2023-02-28T16:22:51;-0.80;64.00
67194;DHT22;54121;53.508;49.422;2023-02-28T16:25:23;-0.70;63.90
67194;DHT22;54121;53.508;49.422;2023-02-28T16:27:51;-0.70;63.70
67194;DHT22;54121;53.508;49.422;2023-02-28T16:30:25;-0.80;63.70
67194;DHT22;54121;53.508;49.422;2023-02-28T16:32:54;-0.90;63.90
67194;DHT22;54121;53.508;49.422;2023-02-28T16:35:21;-0.90;64.00
67194;DHT22;54121;53.508;49.422;2023-02-28T16:37:51;-0.90;63.70
67194;DHT22;54121;53.508;49.422;2023-02-28T16:40:23;-0.90;63.90
67194;DHT22;54121;53.508;49.422;2023-02-28T16:42:53;-0.90;63.70
67194;DHT22;54121;53.508;49.422;2023-02-28T16:45:26;-1.10;64.30
67194;DHT22;54121;53.508;49.422;2023-02-28T16:47:55;-1.10;64.40
67194;DHT22;54121;53.508;49.422;2023-02-28T16:50:28;-1.10;64.60
67194;DHT22;54121;53.508;49.422;2023-02-28T16:52:55;-1.30;64.80
67194;DHT22;54121;53.508;49.422;2023-02-28T16:55:23;-1.30;65.20
67194;DHT22;54121;53.508;49.422;2023-02-28T16:57:56;-1.40;65.90
67194;DHT22;54121;53.508;49.422;2023-02-28T17:00:24;-1.40;65.80
67194;DHT22;54121;53.508;49.422;2023-02-28T17:02:51;-1.30;65.60
67194;DHT22;54121;53.508;49.422;2023-02-28T17:05:18;-1.40;65.50
67194;DHT22;54121;53.508;49.422;2023-02-28T17:07:46;-1.50;65.90
67194;DHT22;54121;53.508;49.422;2023-02-28T17:10:23;-1.50;66.30
67194;DHT22;54121;53.508;49.422;2023-02-28T17:12:50;-1.50;66.20
67194;DHT22;54121;53.508;49.422;2023-02-28T17:15:20;-1.40;66.20
67194;DHT22;54121;53.508;49.422;2023-02-28T17:17:48;-1.50;66.30
67194;DHT22;54121;53.508;49.422;2023-02-28T17:20:19;-1.50;66.30
67194;DHT22;54121;53.508;49.422;2023-02-28T17:22:56;-1.40;66.00
67194;DHT22;54121;53.508;49.422;2023-02-28T17:25:23;-1.30;66.20
67194;DHT22;54121;53.508;49.422;2023-02-28T17:27:50;-1.40;66.40
67194;DHT22;54121;53.508;49.422;2023-02-28T17:30:23;-1.40;66.40
67194;DHT22;54121;53.508;49.422;2023-02-28T17:32:50;-1.30;66.10
67194;DHT22;54121;53.508;49.422;2023-02-28T17:35:17;-1.30;65.70
67194;DHT22;54121;53.508;49.422;2023-02-28T17:37:43;-1.20;65.30
67194;DHT22;54121;53.508;49.422;2023-02-28T17:40:16;-1.20;65.20
67194;DHT22;54121;53.508;49.422;2023-02-28T17:42:44;-1.10;64.80
67194;DHT22;54121;53.508;49.422;2023-02-28T17:45:13;-1.00;64.00
67194;DHT22;54121;53.508;49.422;2023-02-28T17:47:41;-1.10;64.10
67194;DHT22;54121;53.508;49.422;2023-02-28T17:50:21;-1.10;64.60
67194;DHT22;54121;53.508;49.422;2023-02-28T17:52:48;-1.10;64.10
67194;DHT22;54121;53.508;49.422;2023-02-28T17:55:16;-1.10;64.30
67194;DHT22;54121;53.508;49.422;2023-02-28T17:57:43;-1.10;64.70
67194;DHT22;54121;53.508;49.422;2023-02-28T18:00:14;-1.10;64.60
67194;DHT22;54121;53.508;49.422;2023-02-28T18:02:42;-1.20;64.80